sensor_id;sensor_type;location;lat;lon;timestamp;pressure;altitude;pressure_sealevel;temperature;humidity
6453;BME280;3259;51.080;13.712;2023-04-22T00:02:42;100146.09;;;25.47;38.39
6453;BME280;3259;51.080;13.712;2023-04-22T00:05:31;100154.53;;;25.44;38.42
6453;BME280;3259;51.080;13.712;2023-04-22T00:08:20;100145.28;;;25.40;38.67
6453;BME280;3259;51.080;13.712;2023-04-22T00:11:09;100146.09;;;25.47;38.61
6453;BME280;3259;51.080;13.712;2023-04-22T00:13:57;100150.63;;;25.46;38.42
6453;BME280;3259;51.080;13.712;2023-04-22T00:16:47;100147.53;;;25.43;38.22
6453;BME280;3259;51.080;13.712;2023-04-22T00:19:36;100151.88;;;25.44;38.17
6453;BME280;3259;51.080;13.712;2023-04-22T00:22:25;100145.28;;;25.46;38.61
6453;BME280;3259;51.080;13.712;2023-04-22T00:25:14;100144.66;;;25.44;38.36
6453;BME280;3259;51.080;13.712;2023-04-22T00:28:03;100134.41;;;25.48;38.27
6453;BME280;3259;51.080;13.712;2023-04-22T00:30:52;100135.44;;;25.47;38.35
6453;BME280;3259;51.080;13.712;2023-04-22T00:33:42;100139.13;;;25.46;38.34
6453;BME280;3259;51.080;13.712;2023-04-22T00:36:30;100141.56;;;25.47;38.13
6453;BME280;3259;51.080;13.712;2023-04-22T00:39:19;100142.81;;;25.45;38.04
6453;BME280;3259;51.080;13.712;2023-04-22T00:42:08;100135.84;;;25.44;38.46
6453;BME280;3259;51.080;13.712;2023-04-22T00:44:57;100134.41;;;25.48;38.44
6453;BME280;3259;51.080;13.712;2023-04-22T00:47:47;100132.53;;;25.42;38.25
6453;BME280;3259;51.080;13.712;2023-04-22T00:50:37;100135.63;;;25.45;38.54
6453;BME280;3259;51.080;13.712;2023-04-22T00:53:25;100135.19;;;25.42;38.32
6453;BME280;3259;51.080;13.712;2023-04-22T00:56:14;100134.59;;;25.40;38.29
6453;BME280;3259;51.080;13.712;2023-04-22T00:59:03;100131.31;;;25.38;38.16
6453;BME280;3259;51.080;13.712;2023-04-22T01:01:52;100132.53;;;25.42;38.29
6453;BME280;3259;51.080;13.712;2023-04-22T01:04:41;100129.25;;;25.40;38.33
6453;BME280;3259;51.080;13.712;2023-04-22T01:07:31;100133.38;;;25.36;38.25
6453;BME280;3259;51.080;13.712;2023-04-22T01:10:20;100134.16;;;25.43;38.08
6453;BME280;3259;51.080;13.712;2023-04-22T01:13:09;100128.63;;;25.38;38.13
6453;BME280;3259;51.080;13.712;2023-04-22T01:15:59;100132.53;;;25.42;38.15
6453;BME280;3259;51.080;13.712;2023-04-22T01:18:48;100127.59;;;25.39;38.08
6453;BME280;3259;51.080;13.712;2023-04-22T01:21:39;100123.50;;;25.43;38.41
6453;BME280;3259;51.080;13.712;2023-04-22T01:24:29;100116.50;;;25.42;38.13
6453;BME280;3259;51.080;13.712;2023-04-22T01:27:17;100119.00;;;25.43;38.30
6453;BME280;3259;51.080;13.712;2023-04-22T01:30:07;100115.28;;;25.38;38.07
6453;BME280;3259;51.080;13.712;2023-04-22T01:32:56;100118.16;;;25.43;38.29
6453;BME280;3259;51.080;13.712;2023-04-22T01:35:45;100108.31;;;25.37;38.00
6453;BME280;3259;51.080;13.712;2023-04-22T01:38:34;100109.94;;;25.38;38.32
6453;BME280;3259;51.080;13.712;2023-04-22T01:41:24;100105.03;;;25.35;38.38
6453;BME280;3259;51.080;13.712;2023-04-22T01:44:13;100111.78;;;25.31;38.52
6453;BME280;3259;51.080;13.712;2023-04-22T01:47:02;100108.72;;;25.34;38.09
6453;BME280;3259;51.080;13.712;2023-04-22T01:49:51;100103.38;;;25.34;38.42
6453;BME280;3259;51.080;13.712;2023-04-22T01:52:39;100113.22;;;25.33;38.38
6453;BME280;3259;51.080;13.712;2023-04-22T01:55:28;100105.44;;;25.32;38.39
6453;BME280;3259;51.080;13.712;2023-04-22T01:58:23;100111.16;;;25.35;37.96
6453;BME280;3259;51.080;13.712;2023-04-22T02:01:12;100108.72;;;25.34;38.09
6453;BME280;3259;51.080;13.712;2023-04-22T02:04:00;100109.75;;;25.33;38.03
6453;BME280;3259;51.080;13.712;2023-04-22T02:06:49;100105.63;;;25.37;38.05
6453;BME280;3259;51.080;13.712;2023-04-22T02:09:38;100100.50;;;25.35;37.99
6453;BME280;3259;51.080;13.712;2023-04-22T02:12:27;100094.97;;;25.30;37.96
6453;BME280;3259;51.080;13.712;2023-04-22T02:15:17;100098.06;;;25.27;38.54
6453;BME280;3259;51.080;13.712;2023-04-22T02:18:06;100097.63;;;25.30;38.30
6453;BME280;3259;51.080;13.712;2023-04-22T02:20:55;100097.63;;;25.30;38.08
6453;BME280;3259;51.080;13.712;2023-04-22T02:23:44;100097.63;;;25.30;38.06
6453;BME280;3259;51.080;13.712;2023-04-22T02:26:33;100086.13;;;25.30;38.17
6453;BME280;3259;51.080;13.712;2023-04-22T02:29:21;100086.13;;;25.30;38.19
6453;BME280;3259;51.080;13.712;2023-04-22T02:32:12;100085.91;;;25.31;37.81
6453;BME280;3259;51.080;13.712;2023-04-22T02:35:03;100086.53;;;25.27;38.39
6453;BME280;3259;51.080;13.712;2023-04-22T02:37:52;100085.09;;;25.31;38.00
6453;BME280;3259;51.080;13.712;2023-04-22T02:40:41;100091.47;;;25.30;37.91
6453;BME280;3259;51.080;13.712;2023-04-22T02:43:29;100082.41;;;25.24;38.24
6453;BME280;3259;51.080;13.712;2023-04-22T02:46:18;100077.91;;;25.25;38.30
6453;BME280;3259;51.080;13.712;2023-04-22T02:49:08;100077.91;;;25.25;38.30
6453;BME280;3259;51.080;13.712;2023-04-22T02:51:57;100081.19;;;25.20;38.44
6453;BME280;3259;51.080;13.712;2023-04-22T02:54:45;100093.94;;;25.25;38.35
6453;BME280;3259;51.080;13.712;2023-04-22T02:57:34;100079.56;;;25.26;38.37
6453;BME280;3259;51.080;13.712;2023-04-22T03:00:23;100089.00;;;25.22;38.31
6453;BME280;3259;51.080;13.712;2023-04-22T03:03:11;100077.06;;;25.18;38.22
6453;BME280;3259;51.080;13.712;2023-04-22T03:06:02;100077.06;;;25.18;38.26
6453;BME280;3259;51.080;13.712;2023-04-22T03:08:53;100072.38;;;25.20;38.43
6453;BME280;3259;51.080;13.712;2023-04-22T03:11:42;100079.97;;;25.23;38.02
6453;BME280;3259;51.080;13.712;2023-04-22T03:14:30;100076.69;;;25.21;38.29
6453;BME280;3259;51.080;13.712;2023-04-22T03:17:19;100076.03;;;25.19;37.98
6453;BME280;3259;51.080;13.712;2023-04-22T03:20:09;100076.25;;;25.17;38.23
6453;BME280;3259;51.080;13.712;2023-04-22T03:22:59;100071.72;;;25.18;37.96
6453;BME280;3259;51.080;13.712;2023-04-22T03:25:47;100065.16;;;25.14;38.43
6453;BME280;3259;51.080;13.712;2023-04-22T03:28:36;100068.84;;;25.19;37.88
6453;BME280;3259;51.080;13.712;2023-04-22T03:31:25;100061.44;;;25.15;38.20
6453;BME280;3259;51.080;13.712;2023-04-22T03:34:14;100062.69;;;25.19;38.13
6453;BME280;3259;51.080;13.712;2023-04-22T03:37:03;100062.47;;;25.14;38.48
6453;BME280;3259;51.080;13.712;2023-04-22T03:39:53;100061.69;;;25.13;38.26
6453;BME280;3259;51.080;13.712;2023-04-22T03:42:42;100068.44;;;25.16;38.21
6453;BME280;3259;51.080;13.712;2023-04-22T03:45:30;100073.56;;;25.17;37.99
6453;BME280;3259;51.080;13.712;2023-04-22T03:48:19;100063.94;;;25.16;37.89
6453;BME280;3259;51.080;13.712;2023-04-22T03:51:08;100066.38;;;25.18;37.77
6453;BME280;3259;51.080;13.712;2023-04-22T03:53:56;100075.41;;;25.17;37.92
6453;BME280;3259;51.080;13.712;2023-04-22T03:56:46;100066.38;;;25.18;37.96
6453;BME280;3259;51.080;13.712;2023-04-22T03:59:35;100066.00;;;25.14;38.11
6453;BME280;3259;51.080;13.712;2023-04-22T04:02:24;100062.91;;;25.11;38.30
6453;BME280;3259;51.080;13.712;2023-04-22T04:05:13;100060.22;;;25.11;38.19
6453;BME280;3259;51.080;13.712;2023-04-22T04:08:02;100063.31;;;25.14;37.81
6453;BME280;3259;51.080;13.712;2023-04-22T04:10:50;100063.31;;;25.14;38.05
6453;BME280;3259;51.080;13.712;2023-04-22T04:13:40;100059.41;;;25.10;38.34
6453;BME280;3259;51.080;13.712;2023-04-22T04:16:29;100069.28;;;25.10;38.02
6453;BME280;3259;51.080;13.712;2023-04-22T04:19:18;100067.22;;;25.12;38.24
6453;BME280;3259;51.080;13.712;2023-04-22T04:22:07;100065.16;;;25.14;38.22
6453;BME280;3259;51.080;13.712;2023-04-22T04:24:56;100056.94;;;25.15;37.87
6453;BME280;3259;51.080;13.712;2023-04-22T04:27:45;100062.69;;;25.12;37.89
6453;BME280;3259;51.080;13.712;2023-04-22T04:30:35;100055.50;;;25.13;37.99
6453;BME280;3259;51.080;13.712;2023-04-22T04:33:23;100056.94;;;25.09;37.88
6453;BME280;3259;51.080;13.712;2023-04-22T04:36:13;100064.97;;;25.09;38.06
6453;BME280;3259;51.080;13.712;2023-04-22T04:39:02;100064.34;;;25.13;38.24
6453;BME280;3259;51.080;13.712;2023-04-22T04:41:50;100065.56;;;25.11;38.30
6453;BME280;3259;51.080;13.712;2023-04-22T04:44:41;100065.16;;;25.14;38.07
6453;BME280;3259;51.080;13.712;2023-04-22T04:47:31;100062.47;;;25.14;37.70
6453;BME280;3259;51.080;13.712;2023-04-22T04:50:20;100067.63;;;25.15;38.07
6453;BME280;3259;51.080;13.712;2023-04-22T04:53:09;100057.75;;;25.16;37.70
6453;BME280;3259;51.080;13.712;2023-04-22T04:55:57;100067.63;;;25.09;37.98
6453;BME280;3259;51.080;13.712;2023-04-22T04:58:46;100062.69;;;25.06;38.29
6453;BME280;3259;51.080;13.712;2023-04-22T05:01:34;100060.00;;;25.06;37.98
6453;BME280;3259;51.080;13.712;2023-04-22T05:04:25;100066.19;;;25.06;37.98
6453;BME280;3259;51.080;13.712;2023-04-22T05:07:14;100069.28;;;25.10;37.81
6453;BME280;3259;51.080;13.712;2023-04-22T05:10:03;100075.81;;;25.07;38.12
6453;BME280;3259;51.080;13.712;2023-04-22T05:12:52;100066.38;;;25.11;38.05
6453;BME280;3259;51.080;13.712;2023-04-22T05:15:40;100067.22;;;25.12;37.83
6453;BME280;3259;51.080;13.712;2023-04-22T05:18:29;100073.34;;;25.06;37.83
6453;BME280;3259;51.080;13.712;2023-04-22T05:21:19;100069.66;;;25.07;37.70
6453;BME280;3259;51.080;13.712;2023-04-22T05:24:08;100075.00;;;25.07;37.88
6453;BME280;3259;51.080;13.712;2023-04-22T05:26:57;100070.69;;;25.06;37.80
6453;BME280;3259;51.080;13.712;2023-04-22T05:29:45;100079.34;;;25.08;38.00
6453;BME280;3259;51.080;13.712;2023-04-22T05:32:34;100079.53;;;25.06;37.88
6453;BME280;3259;51.080;13.712;2023-04-22T05:35:23;100078.69;;;25.06;38.19
6453;BME280;3259;51.080;13.712;2023-04-22T05:38:13;100075.41;;;25.10;37.95
6453;BME280;3259;51.080;13.712;2023-04-22T05:41:02;100083.22;;;25.12;37.72
6453;BME280;3259;51.080;13.712;2023-04-22T05:43:51;100071.31;;;25.08;38.18
6453;BME280;3259;51.080;13.712;2023-04-22T05:46:39;100076.25;;;25.11;37.67
6453;BME280;3259;51.080;13.712;2023-04-22T05:49:28;100079.94;;;25.16;37.67
6453;BME280;3259;51.080;13.712;2023-04-22T05:52:17;100083.84;;;25.14;37.76
6453;BME280;3259;51.080;13.712;2023-04-22T05:55:07;100077.69;;;25.13;37.85
6453;BME280;3259;51.080;13.712;2023-04-22T05:57:56;100081.16;;;25.14;37.84
6453;BME280;3259;51.080;13.712;2023-04-22T06:00:44;100080.75;;;25.17;38.21
6453;BME280;3259;51.080;13.712;2023-04-22T06:03:33;100077.06;;;25.18;37.83
6453;BME280;3259;51.080;13.712;2023-04-22T06:06:23;100074.03;;;25.21;38.00
6453;BME280;3259;51.080;13.712;2023-04-22T06:09:11;100070.06;;;25.17;38.09
6453;BME280;3259;51.080;13.712;2023-04-22T06:12:01;100075.06;;;25.20;38.03
6453;BME280;3259;51.080;13.712;2023-04-22T06:14:50;100073.00;;;25.22;37.98
6453;BME280;3259;51.080;13.712;2023-04-22T06:17:39;100076.47;;;25.22;37.95
6453;BME280;3259;51.080;13.712;2023-04-22T06:20:28;100084.09;;;25.25;37.77
6453;BME280;3259;51.080;13.712;2023-04-22T06:23:18;100084.03;;;25.19;37.78
6453;BME280;3259;51.080;13.712;2023-04-22T06:26:07;100082.84;;;25.28;37.81
6453;BME280;3259;51.080;13.712;2023-04-22T06:28:57;100084.09;;;25.32;37.90
6453;BME280;3259;51.080;13.712;2023-04-22T06:31:46;100075.44;;;25.30;37.81
6453;BME280;3259;51.080;13.712;2023-04-22T06:34:35;100077.91;;;25.25;37.63
6453;BME280;3259;51.080;13.712;2023-04-22T06:37:24;100069.28;;;25.23;38.09
6453;BME280;3259;51.080;13.712;2023-04-22T06:40:13;100073.00;;;25.22;37.84
6453;BME280;3259;51.080;13.712;2023-04-22T06:43:02;100070.94;;;25.24;38.13
6453;BME280;3259;51.080;13.712;2023-04-22T06:45:52;100075.06;;;25.26;37.78
6453;BME280;3259;51.080;13.712;2023-04-22T06:48:41;100074.22;;;25.26;37.80
6453;BME280;3259;51.080;13.712;2023-04-22T06:51:30;100067.84;;;25.27;37.70
6453;BME280;3259;51.080;13.712;2023-04-22T06:54:18;100079.34;;;25.27;37.85
6453;BME280;3259;51.080;13.712;2023-04-22T06:57:07;100077.50;;;25.28;37.87
6453;BME280;3259;51.080;13.712;2023-04-22T06:59:56;100083.06;;;25.33;37.51
6453;BME280;3259;51.080;13.712;2023-04-22T07:02:46;100078.75;;;25.32;38.13
6453;BME280;3259;51.080;13.712;2023-04-22T07:05:34;100082.22;;;25.32;37.92
6453;BME280;3259;51.080;13.712;2023-04-22T07:08:25;100070.94;;;25.37;37.96
6453;BME280;3259;51.080;13.712;2023-04-22T07:11:15;100077.91;;;25.38;37.88
6453;BME280;3259;51.080;13.712;2023-04-22T07:14:04;100074.19;;;25.39;37.86
6453;BME280;3259;51.080;13.712;2023-04-22T07:16:53;100065.59;;;25.37;38.15
6453;BME280;3259;51.080;13.712;2023-04-22T07:19:43;100070.50;;;25.40;37.81
6453;BME280;3259;51.080;13.712;2023-04-22T07:22:31;100067.22;;;25.38;38.17
6453;BME280;3259;51.080;13.712;2023-04-22T07:25:20;100060.06;;;25.32;38.39
6453;BME280;3259;51.080;13.712;2023-04-22T07:28:09;100066.00;;;25.34;38.88
6453;BME280;3259;51.080;13.712;2023-04-22T07:30:58;100058.00;;;25.34;39.07
6453;BME280;3259;51.080;13.712;2023-04-22T07:33:46;100055.31;;;25.47;38.89
6453;BME280;3259;51.080;13.712;2023-04-22T07:36:36;100047.06;;;25.68;38.68
6453;BME280;3259;51.080;13.712;2023-04-22T07:39:25;100040.63;;;25.82;38.44
6453;BME280;3259;51.080;13.712;2023-04-22T07:42:14;100048.59;;;26.07;37.66
6453;BME280;3259;51.080;13.712;2023-04-22T07:45:03;100051.03;;;26.15;37.55
6453;BME280;3259;51.080;13.712;2023-04-22T07:47:52;100044.84;;;26.15;37.71
6453;BME280;3259;51.080;13.712;2023-04-22T07:50:41;100041.44;;;26.39;37.34
6453;BME280;3259;51.080;13.712;2023-04-22T07:53:31;100043.91;;;26.40;37.40
6453;BME280;3259;51.080;13.712;2023-04-22T07:56:22;100035.59;;;26.48;36.86
6453;BME280;3259;51.080;13.712;2023-04-22T07:59:15;100031.53;;;26.52;37.14
6453;BME280;3259;51.080;13.712;2023-04-22T08:02:04;100033.59;;;26.50;37.32
6453;BME280;3259;51.080;13.712;2023-04-22T08:04:53;100033.19;;;26.40;37.58
6453;BME280;3259;51.080;13.712;2023-04-22T08:07:42;100028.78;;;26.21;37.72
6453;BME280;3259;51.080;13.712;2023-04-22T08:10:32;100027.63;;;26.04;37.21
6453;BME280;3259;51.080;13.712;2023-04-22T08:13:20;100028.25;;;26.00;37.22
6453;BME280;3259;51.080;13.712;2023-04-22T08:16:30;100041.22;;;25.96;37.45
6453;BME280;3259;51.080;13.712;2023-04-22T08:19:19;100038.56;;;25.96;37.04
6453;BME280;3259;51.080;13.712;2023-04-22T08:22:08;100030.34;;;25.92;37.72
6453;BME280;3259;51.080;13.712;2023-04-22T08:24:59;100034.06;;;25.91;37.65
6453;BME280;3259;51.080;13.712;2023-04-22T08:27:49;100028.50;;;25.92;37.30
6453;BME280;3259;51.080;13.712;2023-04-22T08:30:38;100037.09;;;25.94;37.63
6453;BME280;3259;51.080;13.712;2023-04-22T08:33:27;100034.00;;;26.03;37.42
6453;BME280;3259;51.080;13.712;2023-04-22T08:36:17;100018.63;;;25.92;37.37
6453;BME280;3259;51.080;13.712;2023-04-22T08:39:08;100021.69;;;25.96;37.67
6453;BME280;3259;51.080;13.712;2023-04-22T08:41:58;100014.50;;;25.96;37.77
6453;BME280;3259;51.080;13.712;2023-04-22T08:44:49;100023.53;;;25.95;37.84
6453;BME280;3259;51.080;13.712;2023-04-22T08:47:39;100028.91;;;25.95;37.68
6453;BME280;3259;51.080;13.712;2023-04-22T08:50:28;100019.84;;;25.96;37.75
6453;BME280;3259;51.080;13.712;2023-04-22T08:53:19;100015.06;;;26.05;37.47
6453;BME280;3259;51.080;13.712;2023-04-22T08:56:11;100015.50;;;26.02;37.80
6453;BME280;3259;51.080;13.712;2023-04-22T08:59:03;100007.50;;;25.95;37.94
6453;BME280;3259;51.080;13.712;2023-04-22T09:01:54;100006.47;;;25.96;37.84
6453;BME280;3259;51.080;13.712;2023-04-22T09:04:46;100003.81;;;25.96;37.73
6453;BME280;3259;51.080;13.712;2023-04-22T09:07:35;100007.50;;;25.95;37.80
6453;BME280;3259;51.080;13.712;2023-04-22T09:10:27;100007.06;;;25.98;37.92
6453;BME280;3259;51.080;13.712;2023-04-22T09:13:20;100000.94;;;25.98;38.08
6453;BME280;3259;51.080;13.712;2023-04-22T09:16:10;99997.63;;;26.02;37.97
6453;BME280;3259;51.080;13.712;2023-04-22T09:19:02;99999.66;;;26.00;37.89
6453;BME280;3259;51.080;13.712;2023-04-22T09:21:51;99990.59;;;26.01;37.62
6453;BME280;3259;51.080;13.712;2023-04-22T09:24:42;99995.28;;;26.12;38.20
6453;BME280;3259;51.080;13.712;2023-04-22T09:27:34;99985.16;;;26.27;37.66
6453;BME280;3259;51.080;13.712;2023-04-22T09:30:25;99987.22;;;26.19;36.47
6453;BME280;3259;51.080;13.712;2023-04-22T09:33:15;99983.06;;;26.29;36.62
6453;BME280;3259;51.080;13.712;2023-04-22T09:36:09;99978.41;;;26.18;37.01
6453;BME280;3259;51.080;13.712;2023-04-22T09:38:59;99989.66;;;26.27;37.45
6453;BME280;3259;51.080;13.712;2023-04-22T09:41:53;99977.94;;;26.28;36.63
6453;BME280;3259;51.080;13.712;2023-04-22T09:44:43;99963.28;;;26.37;35.70
6453;BME280;3259;51.080;13.712;2023-04-22T09:47:34;99981.78;;;26.38;35.04
6453;BME280;3259;51.080;13.712;2023-04-22T09:50:24;99978.06;;;26.39;34.47
6453;BME280;3259;51.080;13.712;2023-04-22T09:53:16;99970.31;;;26.31;34.85
6453;BME280;3259;51.080;13.712;2023-04-22T09:56:05;99961.72;;;26.23;36.70
6453;BME280;3259;51.080;13.712;2023-04-22T09:58:55;99964.16;;;26.24;36.08
6453;BME280;3259;51.080;13.712;2023-04-22T10:01:43;99965.63;;;26.20;35.94
6453;BME280;3259;51.080;13.712;2023-04-22T10:04:32;99950.63;;;26.19;36.49
6453;BME280;3259;51.080;13.712;2023-04-22T10:07:21;99958.44;;;26.21;35.34
6453;BME280;3259;51.080;13.712;2023-04-22T10:10:11;99957.00;;;26.18;35.33
6453;BME280;3259;51.080;13.712;2023-04-22T10:13:01;99953.66;;;26.29;34.25
6453;BME280;3259;51.080;13.712;2023-04-22T10:15:51;99950.19;;;26.22;34.96
6453;BME280;3259;51.080;13.712;2023-04-22T10:18:41;99959.66;;;26.25;34.37
6453;BME280;3259;51.080;13.712;2023-04-22T10:21:30;99955.09;;;26.32;32.94
6453;BME280;3259;51.080;13.712;2023-04-22T10:24:20;99942.97;;;26.29;32.82
6453;BME280;3259;51.080;13.712;2023-04-22T10:27:10;99956.13;;;26.24;33.80
6453;BME280;3259;51.080;13.712;2023-04-22T10:29:59;99939.69;;;26.27;33.17
6453;BME280;3259;51.080;13.712;2023-04-22T10:32:48;99935.78;;;26.23;32.75
6453;BME280;3259;51.080;13.712;2023-04-22T10:35:37;99952.63;;;26.30;32.64
6453;BME280;3259;51.080;13.712;2023-04-22T10:38:25;99934.69;;;26.31;32.57
6453;BME280;3259;51.080;13.712;2023-04-22T10:41:14;99940.53;;;26.21;34.05
6453;BME280;3259;51.080;13.712;2023-04-22T10:44:06;99937.06;;;26.21;32.88
6453;BME280;3259;51.080;13.712;2023-04-22T10:46:56;99934.97;;;26.23;32.34
6453;BME280;3259;51.080;13.712;2023-04-22T10:49:46;99933.75;;;26.19;31.99
6453;BME280;3259;51.080;13.712;2023-04-22T10:52:37;99936.66;;;26.17;33.16
6453;BME280;3259;51.080;13.712;2023-04-22T10:55:49;99928.84;;;26.16;32.78
6453;BME280;3259;51.080;13.712;2023-04-22T10:58:38;99928.84;;;26.16;33.29
6453;BME280;3259;51.080;13.712;2023-04-22T11:01:28;99931.75;;;26.14;33.50
6453;BME280;3259;51.080;13.712;2023-04-22T11:04:21;99928.84;;;26.16;33.69
6453;BME280;3259;51.080;13.712;2023-04-22T11:07:13;99922.69;;;26.15;33.29
6453;BME280;3259;51.080;13.712;2023-04-22T11:10:07;99914.03;;;26.13;33.95
6453;BME280;3259;51.080;13.712;2023-04-22T11:13:02;99919.38;;;26.13;33.86
6453;BME280;3259;51.080;13.712;2023-04-22T11:15:53;99920.63;;;26.17;33.55
6453;BME280;3259;51.080;13.712;2023-04-22T11:18:45;99913.63;;;26.16;34.89
6453;BME280;3259;51.080;13.712;2023-04-22T11:21:34;99913.63;;;26.16;34.54
6453;BME280;3259;51.080;13.712;2023-04-22T11:24:23;99917.50;;;26.20;34.63
6453;BME280;3259;51.080;13.712;2023-04-22T11:27:12;99922.41;;;26.23;33.59
6453;BME280;3259;51.080;13.712;2023-04-22T11:30:01;99920.13;;;26.27;33.71
6453;BME280;3259;51.080;13.712;2023-04-22T11:32:51;99908.63;;;26.26;32.84
6453;BME280;3259;51.080;13.712;2023-04-22T11:35:42;99912.31;;;26.25;33.15
6453;BME280;3259;51.080;13.712;2023-04-22T11:38:31;99903.06;;;26.28;32.68
6453;BME280;3259;51.080;13.712;2023-04-22T11:41:20;99906.38;;;26.23;33.88
6453;BME280;3259;51.080;13.712;2023-04-22T11:44:12;99901.22;;;26.28;33.38
6453;BME280;3259;51.080;13.712;2023-04-22T11:47:01;99898.69;;;26.33;32.87
6453;BME280;3259;51.080;13.712;2023-04-22T11:49:55;99897.66;;;26.34;31.96
6453;BME280;3259;51.080;13.712;2023-04-22T11:52:49;99901.22;;;26.28;32.68
6453;BME280;3259;51.080;13.712;2023-04-22T11:55:39;99905.34;;;26.24;32.41
6453;BME280;3259;51.080;13.712;2023-04-22T11:58:28;99900.81;;;26.25;32.71
6453;BME280;3259;51.080;13.712;2023-04-22T12:01:17;99893.84;;;26.24;32.73
6453;BME280;3259;51.080;13.712;2023-04-22T12:04:09;99896.91;;;26.27;32.96
6453;BME280;3259;51.080;13.712;2023-04-22T12:06:58;99892.59;;;26.26;33.74
6453;BME280;3259;51.080;13.712;2023-04-22T12:09:52;99892.19;;;26.23;33.72
6453;BME280;3259;51.080;13.712;2023-04-22T12:12:41;99888.44;;;26.30;32.72
6453;BME280;3259;51.080;13.712;2023-04-22T12:15:40;99884.19;;;26.23;33.79
6453;BME280;3259;51.080;13.712;2023-04-22T12:18:30;99876.97;;;26.23;33.68
6453;BME280;3259;51.080;13.712;2023-04-22T12:21:20;99873.44;;;26.29;32.94
6453;BME280;3259;51.080;13.712;2023-04-22T12:24:09;99868.22;;;26.34;33.63
6453;BME280;3259;51.080;13.712;2023-04-22T12:26:59;99868.22;;;26.34;33.36
6453;BME280;3259;51.080;13.712;2023-04-22T12:29:53;99867.78;;;26.37;33.64
6453;BME280;3259;51.080;13.712;2023-04-22T12:32:42;99870.66;;;26.42;33.29
6453;BME280;3259;51.080;13.712;2023-04-22T12:35:31;99871.41;;;26.49;32.92
6453;BME280;3259;51.080;13.712;2023-04-22T12:38:20;99852.44;;;26.57;32.80
6453;BME280;3259;51.080;13.712;2023-04-22T12:41:09;99854.25;;;26.81;32.98
6453;BME280;3259;51.080;13.712;2023-04-22T12:43:59;99841.31;;;26.96;32.96
6453;BME280;3259;51.080;13.712;2023-04-22T12:46:48;99872.75;;;27.25;32.62
6453;BME280;3259;51.080;13.712;2023-04-22T12:49:37;99853.69;;;26.97;32.54
6453;BME280;3259;51.080;13.712;2023-04-22T12:52:26;99863.94;;;27.00;32.73
6453;BME280;3259;51.080;13.712;2023-04-22T12:55:15;99850.53;;;26.82;32.70
6453;BME280;3259;51.080;13.712;2023-04-22T12:58:03;99854.56;;;26.91;32.89
6453;BME280;3259;51.080;13.712;2023-04-22T13:00:53;99843.09;;;26.84;33.09
6453;BME280;3259;51.080;13.712;2023-04-22T13:03:42;99841.09;;;26.80;32.88
6453;BME280;3259;51.080;13.712;2023-04-22T13:06:31;99845.63;;;26.79;32.86
6453;BME280;3259;51.080;13.712;2023-04-22T13:09:23;99838.06;;;26.76;33.00
6453;BME280;3259;51.080;13.712;2023-04-22T13:12:12;99832.25;;;26.79;32.64
6453;BME280;3259;51.080;13.712;2023-04-22T13:15:02;99838.63;;;26.78;32.45
6453;BME280;3259;51.080;13.712;2023-04-22T13:17:53;99830.63;;;26.78;32.82
6453;BME280;3259;51.080;13.712;2023-04-22T13:20:42;99827.09;;;26.78;32.29
6453;BME280;3259;51.080;13.712;2023-04-22T13:23:30;99827.56;;;26.75;32.73
6453;BME280;3259;51.080;13.712;2023-04-22T13:26:19;99837.16;;;26.82;32.64
6453;BME280;3259;51.080;13.712;2023-04-22T13:29:08;99830.59;;;26.96;33.44
6453;BME280;3259;51.080;13.712;2023-04-22T13:32:00;99828.09;;;27.01;33.45
6453;BME280;3259;51.080;13.712;2023-04-22T13:34:51;99827.34;;;26.94;32.74
6453;BME280;3259;51.080;13.712;2023-04-22T13:37:41;99821.56;;;26.97;32.85
6453;BME280;3259;51.080;13.712;2023-04-22T13:40:29;99828.25;;;26.88;32.96
6453;BME280;3259;51.080;13.712;2023-04-22T13:43:18;99819.16;;;26.89;32.47
6453;BME280;3259;51.080;13.712;2023-04-22T13:46:07;99802.28;;;26.89;32.80
6453;BME280;3259;51.080;13.712;2023-04-22T13:48:55;99808.91;;;26.86;33.11
6453;BME280;3259;51.080;13.712;2023-04-22T13:51:45;99799.41;;;26.90;32.93
6453;BME280;3259;51.080;13.712;2023-04-22T13:54:34;99800.56;;;26.94;32.36
6453;BME280;3259;51.080;13.712;2023-04-22T13:57:23;99806.75;;;26.95;32.11
6453;BME280;3259;51.080;13.712;2023-04-22T14:00:12;99798.47;;;26.96;32.10
6453;BME280;3259;51.080;13.712;2023-04-22T14:03:01;99795.97;;;27.01;32.04
6453;BME280;3259;51.080;13.712;2023-04-22T14:05:50;99785.56;;;26.93;32.28
6453;BME280;3259;51.080;13.712;2023-04-22T14:08:40;99785.25;;;27.01;32.10
6453;BME280;3259;51.080;13.712;2023-04-22T14:11:30;99787.63;;;27.09;31.93
6453;BME280;3259;51.080;13.712;2023-04-22T14:14:19;99778.13;;;27.13;31.02
6453;BME280;3259;51.080;13.712;2023-04-22T14:17:08;99781.84;;;27.12;30.95
6453;BME280;3259;51.080;13.712;2023-04-22T14:19:56;99765.63;;;27.25;29.94
6453;BME280;3259;51.080;13.712;2023-04-22T14:22:45;99766.00;;;27.29;28.42
6453;BME280;3259;51.080;13.712;2023-04-22T14:25:36;99763.25;;;27.17;27.55
6453;BME280;3259;51.080;13.712;2023-04-22T14:28:24;99763.72;;;27.14;27.86
6453;BME280;3259;51.080;13.712;2023-04-22T14:31:13;99756.72;;;27.13;27.09
6453;BME280;3259;51.080;13.712;2023-04-22T14:34:02;99748.81;;;27.18;27.27
6453;BME280;3259;51.080;13.712;2023-04-22T14:36:51;99743.91;;;27.15;27.37
6453;BME280;3259;51.080;13.712;2023-04-22T14:39:42;99754.31;;;27.05;27.46
6453;BME280;3259;51.080;13.712;2023-04-22T14:42:32;99745.22;;;27.06;27.26
6453;BME280;3259;51.080;13.712;2023-04-22T14:45:22;99746.59;;;26.97;27.07
6453;BME280;3259;51.080;13.712;2023-04-22T14:48:11;99750.97;;;27.10;26.88
6453;BME280;3259;51.080;13.712;2023-04-22T14:51:00;99748.94;;;27.05;27.43
6453;BME280;3259;51.080;13.712;2023-04-22T14:53:48;99743.13;;;27.08;26.84
6453;BME280;3259;51.080;13.712;2023-04-22T14:56:37;99739.00;;;26.94;26.94
6453;BME280;3259;51.080;13.712;2023-04-22T14:59:27;99740.78;;;27.00;26.88
6453;BME280;3259;51.080;13.712;2023-04-22T15:02:16;99732.88;;;27.05;26.56
6453;BME280;3259;51.080;13.712;2023-04-22T15:05:05;99736.78;;;26.91;26.90